sensor_id;sensor_type;location;lat;lon;timestamp;P1;durP1;ratioP1;P2;durP2;ratioP2
80381;SDS011;69692;55.820;37.490;2023-11-18T00:00:19;9.50;;;4.65;;
80381;SDS011;69692;55.820;37.490;2023-11-18T00:02:45;7.45;;;5.82;;
80381;SDS011;69692;55.820;37.490;2023-11-18T00:05:11;10.10;;;6.00;;
80381;SDS011;69692;55.820;37.490;2023-11-18T00:07:39;9.52;;;4.65;;
80381;SDS011;69692;55.820;37.490;2023-11-18T00:10:05;12.45;;;5.40;;
80381;SDS011;69692;55.820;37.490;2023-11-18T00:12:32;7.65;;;5.38;;
80381;SDS011;69692;55.820;37.490;2023-11-18T00:15:02;7.28;;;5.88;;
80381;SDS011;69692;55.820;37.490;2023-11-18T00:17:32;6.43;;;5.40;;
80381;SDS011;69692;55.820;37.490;2023-11-18T00:19:58;10.20;;;6.07;;
80381;SDS011;69692;55.820;37.490;2023-11-18T00:22:24;12.35;;;5.43;;
80381;SDS011;69692;55.820;37.490;2023-11-18T00:24:50;7.30;;;5.45;;
80381;SDS011;69692;55.820;37.490;2023-11-18T00:27:17;10.15;;;6.22;;
80381;SDS011;69692;55.820;37.490;2023-11-18T00:29:43;13.85;;;5.95;;
80381;SDS011;69692;55.820;37.490;2023-11-18T00:32:09;9.88;;;5.32;;
80381;SDS011;69692;55.820;37.490;2023-11-18T00:34:35;12.52;;;7.00;;
80381;SDS011;69692;55.820;37.490;2023-11-18T00:37:01;15.05;;;5.90;;
80381;SDS011;69692;55.820;37.490;2023-11-18T00:39:27;12.75;;;6.85;;
80381;SDS011;69692;55.820;37.490;2023-11-18T00:41:53;11.57;;;7.35;;
80381;SDS011;69692;55.820;37.490;2023-11-18T00:44:21;10.52;;;6.80;;
80381;SDS011;69692;55.820;37.490;2023-11-18T00:46:47;9.88;;;6.13;;
80381;SDS011;69692;55.820;37.490;2023-11-18T00:49:13;10.02;;;5.20;;
80381;SDS011;69692;55.820;37.490;2023-11-18T00:51:39;12.63;;;6.72;;
80381;SDS011;69692;55.820;37.490;2023-11-18T00:54:06;10.43;;;6.88;;
80381;SDS011;69692;55.820;37.490;2023-11-18T00:56:33;9.68;;;6.32;;
80381;SDS011;69692;55.820;37.490;2023-11-18T00:58:59;10.38;;;5.93;;
80381;SDS011;69692;55.820;37.490;2023-11-18T01:01:28;12.05;;;7.05;;
80381;SDS011;69692;55.820;37.490;2023-11-18T01:03:55;9.02;;;7.18;;
80381;SDS011;69692;55.820;37.490;2023-11-18T01:06:25;8.63;;;6.03;;
80381;SDS011;69692;55.820;37.490;2023-11-18T01:08:52;13.05;;;8.23;;
80381;SDS011;69692;55.820;37.490;2023-11-18T01:11:18;13.77;;;7.95;;
80381;SDS011;69692;55.820;37.490;2023-11-18T01:13:45;11.40;;;8.40;;
80381;SDS011;69692;55.820;37.490;2023-11-18T01:16:11;20.90;;;8.93;;
80381;SDS011;69692;55.820;37.490;2023-11-18T01:18:39;19.35;;;10.07;;
80381;SDS011;69692;55.820;37.490;2023-11-18T01:21:04;18.58;;;10.82;;
80381;SDS011;69692;55.820;37.490;2023-11-18T01:23:32;14.63;;;10.20;;
80381;SDS011;69692;55.820;37.490;2023-11-18T01:25:58;15.85;;;8.18;;
80381;SDS011;69692;55.820;37.490;2023-11-18T01:28:24;12.35;;;7.65;;
80381;SDS011;69692;55.820;37.490;2023-11-18T01:30:51;11.75;;;8.98;;
80381;SDS011;69692;55.820;37.490;2023-11-18T01:33:17;14.18;;;9.13;;
80381;SDS011;69692;55.820;37.490;2023-11-18T01:35:43;11.82;;;6.60;;
80381;SDS011;69692;55.820;37.490;2023-11-18T01:38:09;8.68;;;6.43;;
80381;SDS011;69692;55.820;37.490;2023-11-18T01:40:37;10.07;;;6.43;;
80381;SDS011;69692;55.820;37.490;2023-11-18T01:43:03;11.18;;;6.50;;
80381;SDS011;69692;55.820;37.490;2023-11-18T01:45:36;9.32;;;5.55;;
80381;SDS011;69692;55.820;37.490;2023-11-18T01:48:02;13.38;;;6.85;;
80381;SDS011;69692;55.820;37.490;2023-11-18T01:50:28;12.07;;;6.32;;
80381;SDS011;69692;55.820;37.490;2023-11-18T01:52:55;9.60;;;6.07;;
80381;SDS011;69692;55.820;37.490;2023-11-18T01:55:21;7.72;;;6.00;;
80381;SDS011;69692;55.820;37.490;2023-11-18T01:57:47;11.13;;;7.38;;
80381;SDS011;69692;55.820;37.490;2023-11-18T02:00:13;12.05;;;6.10;;
80381;SDS011;69692;55.820;37.490;2023-11-18T02:02:42;9.38;;;6.45;;
80381;SDS011;69692;55.820;37.490;2023-11-18T02:05:09;10.98;;;6.38;;
80381;SDS011;69692;55.820;37.490;2023-11-18T02:07:38;11.45;;;7.18;;
80381;SDS011;69692;55.820;37.490;2023-11-18T02:10:04;9.02;;;6.25;;
80381;SDS011;69692;55.820;37.490;2023-11-18T02:15:04;10.60;;;6.38;;
80381;SDS011;69692;55.820;37.490;2023-11-18T02:17:37;11.85;;;5.63;;
80381;SDS011;69692;55.820;37.490;2023-11-18T02:20:04;13.32;;;6.18;;
80381;SDS011;69692;55.820;37.490;2023-11-18T02:22:42;8.43;;;6.10;;
80381;SDS011;69692;55.820;37.490;2023-11-18T02:25:26;8.75;;;5.60;;
80381;SDS011;69692;55.820;37.490;2023-11-18T02:27:54;10.32;;;5.65;;
80381;SDS011;69692;55.820;37.490;2023-11-18T02:30:20;10.73;;;6.13;;
80381;SDS011;69692;55.820;37.490;2023-11-18T02:32:52;12.55;;;6.32;;
80381;SDS011;69692;55.820;37.490;2023-11-18T02:35:25;9.15;;;5.32;;
80381;SDS011;69692;55.820;37.490;2023-11-18T02:37:57;10.73;;;5.32;;
80381;SDS011;69692;55.820;37.490;2023-11-18T02:40:42;10.95;;;6.25;;
80381;SDS011;69692;55.820;37.490;2023-11-18T02:43:09;9.63;;;6.13;;
80381;SDS011;69692;55.820;37.490;2023-11-18T02:45:36;10.45;;;6.95;;
80381;SDS011;69692;55.820;37.490;2023-11-18T02:48:03;6.65;;;4.50;;
80381;SDS011;69692;55.820;37.490;2023-11-18T02:50:32;11.13;;;6.85;;
80381;SDS011;69692;55.820;37.490;2023-11-18T02:52:58;9.65;;;5.93;;
80381;SDS011;69692;55.820;37.490;2023-11-18T02:55:24;10.65;;;6.18;;
80381;SDS011;69692;55.820;37.490;2023-11-18T02:57:51;13.70;;;6.10;;
80381;SDS011;69692;55.820;37.490;2023-11-18T03:00:17;10.27;;;5.30;;
80381;SDS011;69692;55.820;37.490;2023-11-18T03:02:50;13.10;;;6.78;;
80381;SDS011;69692;55.820;37.490;2023-11-18T03:05:20;9.55;;;5.55;;
80381;SDS011;69692;55.820;37.490;2023-11-18T03:07:46;9.18;;;5.78;;
80381;SDS011;69692;55.820;37.490;2023-11-18T03:10:15;13.25;;;5.25;;
80381;SDS011;69692;55.820;37.490;2023-11-18T03:12:48;11.82;;;5.30;;
80381;SDS011;69692;55.820;37.490;2023-11-18T03:15:18;12.07;;;6.05;;
80381;SDS011;69692;55.820;37.490;2023-11-18T03:17:45;10.40;;;6.38;;
80381;SDS011;69692;55.820;37.490;2023-11-18T03:20:17;11.23;;;5.72;;
80381;SDS011;69692;55.820;37.490;2023-11-18T03:22:44;10.05;;;5.72;;
80381;SDS011;69692;55.820;37.490;2023-11-18T03:25:11;12.70;;;6.20;;
80381;SDS011;69692;55.820;37.490;2023-11-18T03:27:41;14.57;;;6.18;;
80381;SDS011;69692;55.820;37.490;2023-11-18T03:30:08;15.18;;;7.20;;
80381;SDS011;69692;55.820;37.490;2023-11-18T03:32:34;9.30;;;5.95;;
80381;SDS011;69692;55.820;37.490;2023-11-18T03:35:02;12.07;;;6.32;;
80381;SDS011;69692;55.820;37.490;2023-11-18T03:37:29;12.82;;;6.40;;
80381;SDS011;69692;55.820;37.490;2023-11-18T03:39:56;11.75;;;6.38;;
80381;SDS011;69692;55.820;37.490;2023-11-18T03:42:22;12.23;;;6.13;;
80381;SDS011;69692;55.820;37.490;2023-11-18T03:44:48;10.80;;;4.80;;
80381;SDS011;69692;55.820;37.490;2023-11-18T03:47:14;16.38;;;6.78;;
80381;SDS011;69692;55.820;37.490;2023-11-18T03:49:40;11.75;;;5.38;;
80381;SDS011;69692;55.820;37.490;2023-11-18T03:52:07;16.00;;;6.90;;
80381;SDS011;69692;55.820;37.490;2023-11-18T03:54:33;10.95;;;5.20;;
80381;SDS011;69692;55.820;37.490;2023-11-18T03:56:59;11.18;;;5.78;;
80381;SDS011;69692;55.820;37.490;2023-11-18T03:59:25;9.80;;;5.45;;
80381;SDS011;69692;55.820;37.490;2023-11-18T04:01:51;17.42;;;6.13;;
80381;SDS011;69692;55.820;37.490;2023-11-18T04:04:17;8.98;;;6.10;;
80381;SDS011;69692;55.820;37.490;2023-11-18T04:06:43;10.02;;;5.57;;
80381;SDS011;69692;55.820;37.490;2023-11-18T04:09:10;19.27;;;5.80;;
80381;SDS011;69692;55.820;37.490;2023-11-18T04:11:38;10.68;;;5.80;;
80381;SDS011;69692;55.820;37.490;2023-11-18T04:14:04;15.68;;;5.82;;
80381;SDS011;69692;55.820;37.490;2023-11-18T04:16:30;7.80;;;5.60;;
80381;SDS011;69692;55.820;37.490;2023-11-18T04:18:56;15.00;;;6.40;;
80381;SDS011;69692;55.820;37.490;2023-11-18T04:21:23;11.02;;;6.35;;
80381;SDS011;69692;55.820;37.490;2023-11-18T04:23:49;10.77;;;5.72;;
80381;SDS011;69692;55.820;37.490;2023-11-18T04:26:14;12.63;;;6.97;;
80381;SDS011;69692;55.820;37.490;2023-11-18T04:28:40;11.73;;;6.85;;
80381;SDS011;69692;55.820;37.490;2023-11-18T04:31:06;12.15;;;6.65;;
80381;SDS011;69692;55.820;37.490;2023-11-18T04:33:32;9.63;;;5.50;;
80381;SDS011;69692;55.820;37.490;2023-11-18T04:35:58;17.95;;;6.85;;
80381;SDS011;69692;55.820;37.490;2023-11-18T04:38:25;10.00;;;6.10;;
80381;SDS011;69692;55.820;37.490;2023-11-18T04:40:52;10.48;;;6.15;;
80381;SDS011;69692;55.820;37.490;2023-11-18T04:43:20;9.10;;;5.60;;
80381;SDS011;69692;55.820;37.490;2023-11-18T04:45:46;14.20;;;6.57;;
80381;SDS011;69692;55.820;37.490;2023-11-18T04:48:12;11.15;;;6.00;;
80381;SDS011;69692;55.820;37.490;2023-11-18T04:50:41;12.38;;;6.22;;
80381;SDS011;69692;55.820;37.490;2023-11-18T04:53:08;16.67;;;7.03;;
80381;SDS011;69692;55.820;37.490;2023-11-18T04:55:36;15.13;;;6.68;;
80381;SDS011;69692;55.820;37.490;2023-11-18T04:58:02;19.90;;;7.00;;
80381;SDS011;69692;55.820;37.490;2023-11-18T05:03:02;13.73;;;5.90;;
80381;SDS011;69692;55.820;37.490;2023-11-18T05:05:29;12.38;;;6.43;;
80381;SDS011;69692;55.820;37.490;2023-11-18T05:07:54;12.27;;;6.22;;
80381;SDS011;69692;55.820;37.490;2023-11-18T05:10:20;9.10;;;6.28;;
80381;SDS011;69692;55.820;37.490;2023-11-18T05:12:46;11.90;;;6.85;;
80381;SDS011;69692;55.820;37.490;2023-11-18T05:15:21;14.23;;;7.03;;
80381;SDS011;69692;55.820;37.490;2023-11-18T05:17:53;15.18;;;7.30;;
80381;SDS011;69692;55.820;37.490;2023-11-18T05:20:20;9.85;;;6.00;;
80381;SDS011;69692;55.820;37.490;2023-11-18T05:22:47;12.10;;;7.57;;
80381;SDS011;69692;55.820;37.490;2023-11-18T05:25:13;17.15;;;6.93;;
80381;SDS011;69692;55.820;37.490;2023-11-18T05:27:40;18.60;;;7.78;;
80381;SDS011;69692;55.820;37.490;2023-11-18T05:30:06;11.27;;;6.95;;
80381;SDS011;69692;55.820;37.490;2023-11-18T05:32:33;10.57;;;6.78;;
80381;SDS011;69692;55.820;37.490;2023-11-18T05:34:59;10.05;;;6.65;;
80381;SDS011;69692;55.820;37.490;2023-11-18T05:37:26;12.65;;;7.97;;
80381;SDS011;69692;55.820;37.490;2023-11-18T05:39:55;12.82;;;6.57;;
80381;SDS011;69692;55.820;37.490;2023-11-18T05:42:33;14.30;;;6.97;;
80381;SDS011;69692;55.820;37.490;2023-11-18T05:45:03;11.45;;;7.13;;
80381;SDS011;69692;55.820;37.490;2023-11-18T05:47:31;16.85;;;6.65;;
80381;SDS011;69692;55.820;37.490;2023-11-18T05:49:58;19.33;;;6.72;;
80381;SDS011;69692;55.820;37.490;2023-11-18T05:52:24;15.70;;;6.57;;
80381;SDS011;69692;55.820;37.490;2023-11-18T05:54:50;12.20;;;7.47;;
80381;SDS011;69692;55.820;37.490;2023-11-18T05:57:16;13.98;;;7.65;;
80381;SDS011;69692;55.820;37.490;2023-11-18T05:59:42;17.75;;;6.32;;
80381;SDS011;69692;55.820;37.490;2023-11-18T06:02:09;11.75;;;6.57;;
80381;SDS011;69692;55.820;37.490;2023-11-18T06:04:38;13.00;;;6.10;;
80381;SDS011;69692;55.820;37.490;2023-11-18T06:07:04;24.85;;;7.50;;
80381;SDS011;69692;55.820;37.490;2023-11-18T06:09:31;14.35;;;6.88;;
80381;SDS011;69692;55.820;37.490;2023-11-18T06:11:57;12.93;;;7.00;;
80381;SDS011;69692;55.820;37.490;2023-11-18T06:14:23;20.17;;;6.28;;
80381;SDS011;69692;55.820;37.490;2023-11-18T06:16:49;10.85;;;5.50;;
80381;SDS011;69692;55.820;37.490;2023-11-18T06:19:16;10.00;;;6.20;;
80381;SDS011;69692;55.820;37.490;2023-11-18T06:21:42;7.97;;;5.57;;
80381;SDS011;69692;55.820;37.490;2023-11-18T06:24:07;12.23;;;6.88;;
80381;SDS011;69692;55.820;37.490;2023-11-18T06:26:36;12.05;;;6.70;;
80381;SDS011;69692;55.820;37.490;2023-11-18T06:29:03;14.25;;;6.20;;
80381;SDS011;69692;55.820;37.490;2023-11-18T06:31:32;15.40;;;6.85;;
80381;SDS011;69692;55.820;37.490;2023-11-18T06:33:58;15.70;;;6.00;;
80381;SDS011;69692;55.820;37.490;2023-11-18T06:36:24;12.88;;;5.55;;
80381;SDS011;69692;55.820;37.490;2023-11-18T06:38:52;12.82;;;6.53;;
80381;SDS011;69692;55.820;37.490;2023-11-18T06:41:20;11.93;;;6.07;;
80381;SDS011;69692;55.820;37.490;2023-11-18T06:43:49;15.07;;;5.80;;
80381;SDS011;69692;55.820;37.490;2023-11-18T06:46:26;12.07;;;5.95;;
80381;SDS011;69692;55.820;37.490;2023-11-18T06:49:00;13.20;;;5.95;;
80381;SDS011;69692;55.820;37.490;2023-11-18T06:51:31;16.98;;;6.57;;
80381;SDS011;69692;55.820;37.490;2023-11-18T06:54:01;12.85;;;6.88;;
80381;SDS011;69692;55.820;37.490;2023-11-18T06:56:40;16.40;;;6.28;;
80381;SDS011;69692;55.820;37.490;2023-11-18T06:59:10;11.27;;;6.30;;
80381;SDS011;69692;55.820;37.490;2023-11-18T07:01:39;12.23;;;5.80;;
80381;SDS011;69692;55.820;37.490;2023-11-18T07:04:09;17.67;;;7.68;;
80381;SDS011;69692;55.820;37.490;2023-11-18T07:06:36;15.45;;;5.30;;
80381;SDS011;69692;55.820;37.490;2023-11-18T07:09:07;11.40;;;6.70;;
80381;SDS011;69692;55.820;37.490;2023-11-18T07:11:46;10.07;;;6.43;;
80381;SDS011;69692;55.820;37.490;2023-11-18T07:14:13;16.58;;;8.25;;
80381;SDS011;69692;55.820;37.490;2023-11-18T07:16:40;13.07;;;5.65;;
80381;SDS011;69692;55.820;37.490;2023-11-18T07:19:07;9.73;;;6.60;;
80381;SDS011;69692;55.820;37.490;2023-11-18T07:21:35;11.00;;;6.07;;
80381;SDS011;69692;55.820;37.490;2023-11-18T07:24:01;11.05;;;5.00;;
80381;SDS011;69692;55.820;37.490;2023-11-18T07:26:30;20.95;;;7.47;;
80381;SDS011;69692;55.820;37.490;2023-11-18T07:28:56;13.30;;;6.65;;
80381;SDS011;69692;55.820;37.490;2023-11-18T07:31:22;16.92;;;7.35;;
80381;SDS011;69692;55.820;37.490;2023-11-18T07:33:48;14.50;;;7.40;;
80381;SDS011;69692;55.820;37.490;2023-11-18T07:36:16;16.83;;;6.65;;
80381;SDS011;69692;55.820;37.490;2023-11-18T07:38:42;16.58;;;6.20;;
80381;SDS011;69692;55.820;37.490;2023-11-18T07:41:09;9.80;;;6.57;;
80381;SDS011;69692;55.820;37.490;2023-11-18T07:43:35;10.05;;;5.03;;
80381;SDS011;69692;55.820;37.490;2023-11-18T07:46:03;16.17;;;6.20;;
80381;SDS011;69692;55.820;37.490;2023-11-18T07:48:29;11.60;;;5.53;;
80381;SDS011;69692;55.820;37.490;2023-11-18T07:50:57;12.18;;;5.85;;
80381;SDS011;69692;55.820;37.490;2023-11-18T07:53:22;17.70;;;7.93;;
80381;SDS011;69692;55.820;37.490;2023-11-18T07:55:48;10.63;;;6.18;;
80381;SDS011;69692;55.820;37.490;2023-11-18T07:58:16;8.73;;;5.82;;
80381;SDS011;69692;55.820;37.490;2023-11-18T08:00:44;11.52;;;6.43;;
80381;SDS011;69692;55.820;37.490;2023-11-18T08:03:13;10.15;;;6.63;;
80381;SDS011;69692;55.820;37.490;2023-11-18T08:05:43;11.00;;;5.80;;
80381;SDS011;69692;55.820;37.490;2023-11-18T08:08:11;10.00;;;5.45;;
80381;SDS011;69692;55.820;37.490;2023-11-18T08:10:39;8.98;;;5.00;;
80381;SDS011;69692;55.820;37.490;2023-11-18T08:13:08;10.80;;;5.25;;
80381;SDS011;69692;55.820;37.490;2023-11-18T08:15:35;12.05;;;5.45;;
80381;SDS011;69692;55.820;37.490;2023-11-18T08:18:04;5.13;;;3.63;;
80381;SDS011;69692;55.820;37.490;2023-11-18T08:20:32;7.70;;;4.05;;
80381;SDS011;69692;55.820;37.490;2023-11-18T08:22:58;8.80;;;4.70;;
80381;SDS011;69692;55.820;37.490;2023-11-18T08:25:24;10.73;;;4.65;;
80381;SDS011;69692;55.820;37.490;2023-11-18T08:27:51;10.93;;;4.72;;
80381;SDS011;69692;55.820;37.490;2023-11-18T08:30:17;9.57;;;4.40;;
80381;SDS011;69692;55.820;37.490;2023-11-18T08:32:47;8.60;;;5.78;;
80381;SDS011;69692;55.820;37.490;2023-11-18T08:35:13;6.90;;;4.45;;
80381;SDS011;69692;55.820;37.490;2023-11-18T08:37:40;9.32;;;4.85;;
80381;SDS011;69692;55.820;37.490;2023-11-18T08:40:08;8.93;;;5.88;;
80381;SDS011;69692;55.820;37.490;2023-11-18T08:42:48;9.82;;;4.97;;
80381;SDS011;69692;55.820;37.490;2023-11-18T08:45:27;10.13;;;5.03;;
80381;SDS011;69692;55.820;37.490;2023-11-18T08:47:59;12.18;;;5.13;;
80381;SDS011;69692;55.820;37.490;2023-11-18T08:50:34;11.20;;;5.25;;
80381;SDS011;69692;55.820;37.490;2023-11-18T08:53:01;6.60;;;4.53;;
80381;SDS011;69692;55.820;37.490;2023-11-18T08:55:31;8.85;;;3.70;;
80381;SDS011;69692;55.820;37.490;2023-11-18T08:58:06;9.45;;;4.53;;
80381;SDS011;69692;55.820;37.490;2023-11-18T09:00:49;5.32;;;3.22;;
80381;SDS011;69692;55.820;37.490;2023-11-18T09:03:30;8.75;;;4.03;;
80381;SDS011;69692;55.820;37.490;2023-11-18T09:06:09;7.38;;;3.88;;
80381;SDS011;69692;55.820;37.490;2023-11-18T09:08:51;7.25;;;3.95;;
80381;SDS011;69692;55.820;37.490;2023-11-18T09:11:23;7.15;;;3.45;;
80381;SDS011;69692;55.820;37.490;2023-11-18T09:13:52;11.75;;;4.50;;
80381;SDS011;69692;55.820;37.490;2023-11-18T09:16:26;7.60;;;4.07;;
80381;SDS011;69692;55.820;37.490;2023-11-18T09:18:55;8.73;;;4.15;;
80381;SDS011;69692;55.820;37.490;2023-11-18T09:21:23;9.52;;;4.25;;
80381;SDS011;69692;55.820;37.490;2023-11-18T09:23:53;6.75;;;3.95;;
80381;SDS011;69692;55.820;37.490;2023-11-18T09:26:20;10.25;;;3.90;;
80381;SDS011;69692;55.820;37.490;2023-11-18T09:28:46;14.23;;;4.93;;
80381;SDS011;69692;55.820;37.490;2023-11-18T09:31:15;9.73;;;4.28;;
80381;SDS011;69692;55.820;37.490;2023-11-18T09:33:42;8.05;;;4.55;;
80381;SDS011;69692;55.820;37.490;2023-11-18T09:36:26;12.40;;;6.05;;
80381;SDS011;69692;55.820;37.490;2023-11-18T09:38:54;6.05;;;3.60;;
80381;SDS011;69692;55.820;37.490;2023-11-18T09:41:22;6.72;;;4.22;;
80381;SDS011;69692;55.820;37.490;2023-11-18T09:43:52;7.05;;;3.42;;
80381;SDS011;69692;55.820;37.490;2023-11-18T09:46:22;7.47;;;4.22;;
80381;SDS011;69692;55.820;37.490;2023-11-18T09:48:50;6.07;;;3.40;;
80381;SDS011;69692;55.820;37.490;2023-11-18T09:51:26;8.55;;;3.08;;
80381;SDS011;69692;55.820;37.490;2023-11-18T09:54:00;5.55;;;3.70;;
80381;SDS011;69692;55.820;37.490;2023-11-18T10:01:42;7.15;;;3.28;;
80381;SDS011;69692;55.820;37.490;2023-11-18T10:04:13;6.53;;;3.60;;
80381;SDS011;69692;55.820;37.490;2023-11-18T10:06:44;10.82;;;3.75;;
80381;SDS011;69692;55.820;37.490;2023-11-18T10:09:12;8.88;;;4.45;;
80381;SDS011;69692;55.820;37.490;2023-11-18T10:11:42;8.10;;;3.83;;
80381;SDS011;69692;55.820;37.490;2023-11-18T10:14:08;10.95;;;4.18;;
80381;SDS011;69692;55.820;37.490;2023-11-18T10:16:35;10.13;;;4.53;;
80381;SDS011;69692;55.820;37.490;2023-11-18T10:19:03;7.43;;;3.90;;
80381;SDS011;69692;55.820;37.490;2023-11-18T10:21:34;6.93;;;3.45;;
80381;SDS011;69692;55.820;37.490;2023-11-18T10:24:07;9.43;;;4.40;;
80381;SDS011;69692;55.820;37.490;2023-11-18T10:26:45;20.98;;;4.28;;
80381;SDS011;69692;55.820;37.490;2023-11-18T10:29:23;9.38;;;3.05;;
80381;SDS011;69692;55.820;37.490;2023-11-18T10:32:03;13.77;;;4.53;;
80381;SDS011;69692;55.820;37.490;2023-11-18T10:34:42;10.13;;;4.07;;
80381;SDS011;69692;55.820;37.490;2023-11-18T10:37:08;7.63;;;4.05;;
80381;SDS011;69692;55.820;37.490;2023-11-18T10:39:36;7.05;;;4.47;;
80381;SDS011;69692;55.820;37.490;2023-11-18T10:42:02;13.90;;;5.60;;
80381;SDS011;69692;55.820;37.490;2023-11-18T10:44:29;11.40;;;3.78;;
80381;SDS011;69692;55.820;37.490;2023-11-18T10:46:55;11.35;;;4.53;;
80381;SDS011;69692;55.820;37.490;2023-11-18T10:49:28;8.55;;;4.28;;
80381;SDS011;69692;55.820;37.490;2023-11-18T10:51:57;10.43;;;4.18;;
80381;SDS011;69692;55.820;37.490;2023-11-18T10:54:23;10.30;;;4.22;;
80381;SDS011;69692;55.820;37.490;2023-11-18T10:56:52;10.10;;;4.45;;
80381;SDS011;69692;55.820;37.490;2023-11-18T10:59:22;8.20;;;4.45;;
80381;SDS011;69692;55.820;37.490;2023-11-18T11:01:48;13.18;;;4.55;;
80381;SDS011;69692;55.820;37.490;2023-11-18T11:04:14;12.38;;;4.75;;
80381;SDS011;69692;55.820;37.490;2023-11-18T11:06:43;10.52;;;3.78;;
80381;SDS011;69692;55.820;37.490;2023-11-18T11:09:18;16.95;;;5.15;;
80381;SDS011;69692;55.820;37.490;2023-11-18T11:11:54;9.65;;;4.60;;
80381;SDS011;69692;55.820;37.490;2023-11-18T11:14:22;12.90;;;4.53;;
80381;SDS011;69692;55.820;37.490;2023-11-18T11:17:03;6.28;;;4.13;;
80381;SDS011;69692;55.820;37.490;2023-11-18T11:19:50;11.90;;;4.20;;
80381;SDS011;69692;55.820;37.490;2023-11-18T11:22:30;8.95;;;4.00;;
80381;SDS011;69692;55.820;37.490;2023-11-18T11:25:13;12.48;;;3.92;;
80381;SDS011;69692;55.820;37.490;2023-11-18T11:33:49;13.07;;;4.82;;
80381;SDS011;69692;55.820;37.490;2023-11-18T11:36:25;9.13;;;4.65;;
80381;SDS011;69692;55.820;37.490;2023-11-18T11:38:58;6.93;;;5.25;;
80381;SDS011;69692;55.820;37.490;2023-11-18T11:41:26;8.63;;;5.25;;
80381;SDS011;69692;55.820;37.490;2023-11-18T11:43:54;9.25;;;5.13;;
80381;SDS011;69692;55.820;37.490;2023-11-18T11:46:24;14.57;;;4.50;;
80381;SDS011;69692;55.820;37.490;2023-11-18T11:48:59;10.32;;;5.18;;
80381;SDS011;69692;55.820;37.490;2023-11-18T11:51:52;14.23;;;5.05;;
80381;SDS011;69692;55.820;37.490;2023-11-18T11:54:21;8.18;;;4.45;;
80381;SDS011;69692;55.820;37.490;2023-11-18T11:56:55;6.57;;;3.13;;
80381;SDS011;69692;55.820;37.490;2023-11-18T11:59:34;8.35;;;5.00;;
80381;SDS011;69692;55.820;37.490;2023-11-18T12:02:03;6.63;;;4.53;;
80381;SDS011;69692;55.820;37.490;2023-11-18T12:04:34;14.60;;;4.35;;
80381;SDS011;69692;55.820;37.490;2023-11-18T12:07:09;15.00;;;4.65;;
80381;SDS011;69692;55.820;37.490;2023-11-18T12:09:35;10.73;;;4.88;;
80381;SDS011;69692;55.820;37.490;2023-11-18T12:12:05;8.02;;;4.55;;
80381;SDS011;69692;55.820;37.490;2023-11-18T12:14:50;8.52;;;4.50;;
80381;SDS011;69692;55.820;37.490;2023-11-18T12:17:18;9.10;;;4.00;;
80381;SDS011;69692;55.820;37.490;2023-11-18T12:19:47;7.57;;;4.43;;
80381;SDS011;69692;55.820;37.490;2023-11-18T12:30:37;11.38;;;4.53;;
80381;SDS011;69692;55.820;37.490;2023-11-18T12:33:04;9.40;;;4.40;;
80381;SDS011;69692;55.820;37.490;2023-11-18T12:42:00;14.75;;;5.63;;
80381;SDS011;69692;55.820;37.490;2023-11-18T12:49:24;13.00;;;3.42;;
80381;SDS011;69692;55.820;37.490;2023-11-18T12:51:51;11.73;;;5.38;;
80381;SDS011;69692;55.820;37.490;2023-11-18T12:54:21;8.48;;;4.55;;
80381;SDS011;69692;55.820;37.490;2023-11-18T12:56:50;11.90;;;6.07;;
80381;SDS011;69692;55.820;37.490;2023-11-18T12:59:19;8.90;;;5.72;;
80381;SDS011;69692;55.820;37.490;2023-11-18T13:01:46;8.43;;;4.60;;
80381;SDS011;69692;55.820;37.490;2023-11-18T13:04:23;9.48;;;5.05;;
80381;SDS011;69692;55.820;37.490;2023-11-18T13:06:52;9.80;;;4.43;;
80381;SDS011;69692;55.820;37.490;2023-11-18T13:09:21;9.02;;;4.45;;
80381;SDS011;69692;55.820;37.490;2023-11-18T13:11:57;9.55;;;6.20;;
80381;SDS011;69692;55.820;37.490;2023-11-18T13:14:28;7.57;;;4.93;;
80381;SDS011;69692;55.820;37.490;2023-11-18T13:16:56;12.30;;;5.32;;
80381;SDS011;69692;55.820;37.490;2023-11-18T13:19:26;10.85;;;5.13;;
80381;SDS011;69692;55.820;37.490;2023-11-18T13:21:57;12.82;;;5.32;;
80381;SDS011;69692;55.820;37.490;2023-11-18T13:24:29;9.30;;;4.97;;
80381;SDS011;69692;55.820;37.490;2023-11-18T13:26:57;15.43;;;5.57;;
80381;SDS011;69692;55.820;37.490;2023-11-18T13:29:29;12.95;;;5.90;;
80381;SDS011;69692;55.820;37.490;2023-11-18T13:31:56;14.43;;;5.85;;
80381;SDS011;69692;55.820;37.490;2023-11-18T13:34:23;14.38;;;6.50;;
80381;SDS011;69692;55.820;37.490;2023-11-18T13:36:50;14.68;;;7.43;;
80381;SDS011;69692;55.820;37.490;2023-11-18T13:39:19;14.40;;;5.57;;
80381;SDS011;69692;55.820;37.490;2023-11-18T13:41:48;14.35;;;6.47;;
80381;SDS011;69692;55.820;37.490;2023-11-18T13:47:06;12.38;;;5.45;;
80381;SDS011;69692;55.820;37.490;2023-11-18T13:49:37;11.02;;;6.70;;
80381;SDS011;69692;55.820;37.490;2023-11-18T13:52:06;15.75;;;6.15;;
80381;SDS011;69692;55.820;37.490;2023-11-18T13:54:37;14.85;;;7.50;;
80381;SDS011;69692;55.820;37.490;2023-11-18T13:57:04;15.20;;;6.78;;
80381;SDS011;69692;55.820;37.490;2023-11-18T13:59:31;14.20;;;5.35;;
80381;SDS011;69692;55.820;37.490;2023-11-18T14:01:57;13.52;;;6.38;;
80381;SDS011;69692;55.820;37.490;2023-11-18T14:04:24;12.57;;;7.18;;
80381;SDS011;69692;55.820;37.490;2023-11-18T14:06:53;18.17;;;6.10;;
80381;SDS011;69692;55.820;37.490;2023-11-18T14:09:22;11.05;;;6.03;;
80381;SDS011;69692;55.820;37.490;2023-11-18T14:11:52;25.88;;;7.85;;
80381;SDS011;69692;55.820;37.490;2023-11-18T14:14:22;17.23;;;7.20;;
80381;SDS011;69692;55.820;37.490;2023-11-18T14:16:48;15.25;;;7.55;;
80381;SDS011;69692;55.820;37.490;2023-11-18T14:19:15;14.20;;;7.38;;
80381;SDS011;69692;55.820;37.490;2023-11-18T14:21:41;19.83;;;6.70;;
80381;SDS011;69692;55.820;37.490;2023-11-18T14:24:08;17.08;;;9.35;;
80381;SDS011;69692;55.820;37.490;2023-11-18T14:26:36;14.57;;;7.65;;
80381;SDS011;69692;55.820;37.490;2023-11-18T14:29:02;25.02;;;8.68;;
80381;SDS011;69692;55.820;37.490;2023-11-18T14:31:28;15.73;;;8.07;;
80381;SDS011;69692;55.820;37.490;2023-11-18T14:33:54;16.27;;;7.63;;
80381;SDS011;69692;55.820;37.490;2023-11-18T14:36:25;20.05;;;8.18;;
80381;SDS011;69692;55.820;37.490;2023-11-18T14:38:51;17.30;;;9.30;;
80381;SDS011;69692;55.820;37.490;2023-11-18T14:41:17;29.58;;;9.23;;
80381;SDS011;69692;55.820;37.490;2023-11-18T14:43:45;19.35;;;9.32;;
80381;SDS011;69692;55.820;37.490;2023-11-18T14:46:11;16.77;;;7.60;;
80381;SDS011;69692;55.820;37.490;2023-11-18T14:48:38;24.35;;;9.43;;
80381;SDS011;69692;55.820;37.490;2023-11-18T14:51:04;20.98;;;8.35;;
80381;SDS011;69692;55.820;37.490;2023-11-18T14:53:33;15.77;;;8.65;;
80381;SDS011;69692;55.820;37.490;2023-11-18T14:55:59;15.80;;;7.60;;
80381;SDS011;69692;55.820;37.490;2023-11-18T14:58:26;19.88;;;9.60;;
80381;SDS011;69692;55.820;37.490;2023-11-18T15:00:52;19.88;;;8.57;;
80381;SDS011;69692;55.820;37.490;2023-11-18T15:03:22;16.17;;;7.43;;
80381;SDS011;69692;55.820;37.490;2023-11-18T15:05:48;23.38;;;9.27;;
80381;SDS011;69692;55.820;37.490;2023-11-18T15:08:15;18.35;;;8.13;;
80381;SDS011;69692;55.820;37.490;2023-11-18T15:10:41;18.40;;;8.05;;
80381;SDS011;69692;55.820;37.490;2023-11-18T15:13:07;15.00;;;7.07;;